Weather at Ulu Ulu Resort Heliport

Public forecast

Using degrees Celsius for public forecast. Weather courtesy of forecast.io.

Closest aviation weather report (METAR) to Ulu Ulu Resort Heliport

Closest report is Brunei International Airport, 27.1 nm (50.1 km) NNW. Retrieved 2021/10/28 11:00 UTC (41 seconds ago):

WBSB 281100Z 09002KT 5000 RA FEW003 BKN150 27/27 Q1010 RETS TEMPO 4000 RA

Closest aviation forecast (TAF) to Ulu Ulu Resort Heliport

Closest forecast is Brunei International Airport, 27.1 nm (50.1 km) NNW. Retrieved 2021/10/28 06:09 UTC (5 hours ago):

TAF WBSB 280450Z 2806/2912 29008KT 9999 SCT015 FEW016CB TEMPO 2809/2814 5000 TSRA SCT014 FEW015CB BECMG 2812/2814 16003KT FEW003 FEW015CB